Ap703 — 9GMH — position and weather

sailwx.info

Track history (hours):
 
Tides and Currents Weather Stations Pressure Air Temp Water Temp Dewpoint Dewpoint Depression Visibility Wind Speed Wind Dir Waves Ship Positions

Ap703

Last reported at 2017-Sep-18 09:59 UTC. Time now 2017-Sep-20 23:45 UTC.
Position N 05°31' E 000°21'.

Length 5 m.

Type: Fishing. MMSI: 627795000.

Date/timePositionNaut miles runAvg speedWind from/ knotsBaromVisibWave heightAir tempDewpointWater temp
2017-Sep-18 09:59N 05°31' E 000°21'5 9.7
2017-Sep-18 09:27N 05°34' E 000°17'5 9.8
2017-Sep-18 09:00N 05°36' E 000°13'510.1
2017-Sep-18 08:30N 05°38' E 000°08'1 2.3
2017-Sep-18 08:00N 05°38' E 000°07'0 0.8
2017-Sep-18 07:30N 05°38' E 000°07'0 0.4
2017-Sep-18 07:00N 05°39' E 000°07'1 2.1
2017-Sep-18 06:30N 05°38' E 000°06'0 0.6
2017-Sep-18 06:00N 05°38' E 000°05'1 1.4
2017-Sep-18 05:30N 05°38' E 000°06'1 2.1
2017-Sep-18 05:00N 05°38' E 000°07'0 0.7
2017-Sep-18 04:30N 05°37' E 000°06'2 3.3
2017-Sep-18 04:00N 05°38' E 000°08'4 8.1
2017-Sep-18 03:30N 05°39' E 000°11'5 8.9
2017-Sep-18 03:00N 05°40' E 000°16'3 6.5
2017-Sep-18 02:30N 05°39' E 000°19'3 6.2
2017-Sep-18 01:59N 05°38' E 000°22'40 1.0
2017-Sep-16 09:43N 05°20' W 000°14'2 9.2
2017-Sep-16 09:30N 05°22' W 000°14'5 9.2
2017-Sep-16 09:00N 05°26' W 000°16'2 3.2
2017-Sep-16 08:30N 05°28' W 000°17'0 0.8
2017-Sep-16 07:54N 05°27' W 000°17'1 2.1
2017-Sep-16 07:29N 05°28' W 000°17'1 0.9
2017-Sep-16 06:51N 05°28' W 000°17'0 0.9
2017-Sep-16 06:30N 05°28' W 000°17'0 0.8
2017-Sep-16 06:00N 05°27' W 000°18'1 1.8
2017-Sep-16 05:30N 05°27' W 000°19'0 0.0
2017-Sep-16 04:52N 05°27' W 000°19'0 0.0
2017-Sep-16 04:25N 05°27' W 000°19'0 0.0
2017-Sep-16 04:00N 05°27' W 000°19'0 0.0
2017-Sep-16 03:28N 05°27' W 000°19'0 0.0
2017-Sep-16 02:59N 05°27' W 000°19'0 0.0
2017-Sep-16 02:25N 05°27' W 000°19'0 0.0
2017-Sep-16 02:00N 05°27' W 000°19'0 0.0
2017-Sep-16 01:27N 05°27' W 000°19'0 0.0
2017-Sep-16 01:00N 05°27' W 000°19'0 0.3
2017-Sep-16 00:30N 05°27' W 000°19'20 1.7
2017-Sep-15 12:41N 05°21' E 000°01'2 9.7
2017-Sep-15 12:30N 05°23' E 000°01'5 9.8
2017-Sep-15 12:00N 05°28' E 000°02'5 9.7
2017-Sep-15 11:30N 05°32' E 000°02'5 9.6
2017-Sep-15 11:00N 05°37' E 000°02'1 2.2
2017-Sep-15 10:30N 05°38' E 000°01'0 0.9
2017-Sep-15 10:00N 05°37' E 000°02'0 0.0
2017-Sep-15 09:30N 05°37' E 000°02'0 0.0
2017-Sep-15 09:00N 05°37' E 000°02'0 0.0
2017-Sep-15 08:30N 05°37' E 000°02'1 1.9
2017-Sep-15 08:00N 05°38' E 000°01'0 0.0
2017-Sep-15 07:30N 05°38' E 000°01'0 0.0
2017-Sep-15 07:00N 05°38' E 000°01'0 0.0
2017-Sep-15 06:30N 05°38' E 000°01'0 0.0
2017-Sep-15 06:00N 05°38' E 000°01'0 0.0
2017-Sep-15 05:30N 05°38' E 000°01'0 0.0
2017-Sep-15 05:00N 05°38' E 000°01'0 0.0
2017-Sep-15 04:30N 05°38' E 000°01'0 0.0
2017-Sep-15 04:00N 05°38' E 000°01'0 0.0
2017-Sep-15 03:30N 05°38' E 000°01'0 0.0
2017-Sep-15 03:00N 05°38' E 000°01'0 0.0
2017-Sep-15 02:30N 05°38' E 000°01'0 0.0
2017-Sep-15 02:00N 05°38' E 000°01'0 0.0
2017-Sep-15 01:30N 05°38' E 000°01'0 0.0
2017-Sep-15 01:00N 05°38' E 000°01'0 0.0
2017-Sep-15 00:30N 05°38' E 000°01'0 0.0
2017-Sep-15 00:00N 05°38' E 000°01'0 0.0
2017-Sep-14 23:30N 05°38' E 000°01'0 0.0
2017-Sep-14 23:00N 05°38' E 000°01'0 0.0
2017-Sep-14 22:30N 05°38' E 000°01'0 0.0
2017-Sep-14 22:00N 05°38' E 000°01'0 0.0
2017-Sep-14 21:30N 05°38' E 000°01'0 0.0
2017-Sep-14 21:00N 05°38' E 000°01'0 0.0
2017-Sep-14 20:30N 05°38' E 000°01'0 0.0
2017-Sep-14 20:00N 05°38' E 000°01'0 0.0
2017-Sep-14 19:30N 05°38' E 000°01'0 0.0
2017-Sep-14 19:00N 05°38' E 000°01'0 0.0
2017-Sep-14 18:30N 05°38' E 000°01'0 0.0
2017-Sep-14 18:00N 05°38' E 000°01'0 0.0
2017-Sep-14 17:30N 05°38' E 000°01'0 0.0
2017-Sep-14 17:00N 05°38' E 000°01'0 0.0
2017-Sep-14 16:30N 05°38' E 000°01'0 0.0
2017-Sep-14 16:00N 05°38' E 000°01'0 0.0
2017-Sep-14 15:30N 05°38' E 000°01'0 0.0
2017-Sep-14 15:00N 05°38' E 000°01'0 0.0
2017-Sep-14 14:30N 05°38' E 000°01'0 0.0
2017-Sep-14 14:00N 05°38' E 000°01'0 0.0
2017-Sep-14 13:30N 05°38' E 000°01'0 0.0
2017-Sep-14 13:00N 05°38' E 000°01'0 0.0
2017-Sep-14 12:30N 05°38' E 000°01'0 0.0
2017-Sep-14 12:00N 05°38' E 000°01'0 0.0
2017-Sep-14 11:30N 05°38' E 000°01'0 0.0
2017-Sep-14 11:00N 05°38' E 000°01'0 0.0
2017-Sep-14 10:30N 05°38' E 000°01'0 0.0
2017-Sep-14 10:00N 05°38' E 000°01'0 0.0
2017-Sep-14 09:30N 05°38' E 000°01'0 0.0
2017-Sep-14 09:00N 05°38' E 000°01'0 0.0
2017-Sep-14 08:30N 05°38' E 000°01'0 0.0
2017-Sep-14 08:00N 05°38' E 000°01'0 0.0
2017-Sep-14 07:30N 05°38' E 000°01'0 0.0
2017-Sep-14 07:00N 05°38' E 000°01'0 0.0
2017-Sep-14 06:30N 05°38' E 000°01'0 0.0
2017-Sep-14 06:00N 05°38' E 000°01'0 0.0
2017-Sep-14 05:30N 05°38' E 000°01'0 0.0
2017-Sep-14 05:00N 05°38' E 000°01'0 0.0
2017-Sep-14 04:30N 05°38' E 000°01'0 0.0
2017-Sep-14 04:00N 05°38' E 000°01'0 0.0
2017-Sep-14 03:30N 05°38' E 000°01'0 0.0
2017-Sep-14 03:00N 05°38' E 000°01'0 0.0
2017-Sep-14 02:30N 05°38' E 000°01'0 0.0
2017-Sep-14 02:00N 05°38' E 000°01'0 0.0
2017-Sep-14 01:30N 05°38' E 000°01'0 0.0
2017-Sep-14 01:00N 05°38' E 000°01'0 0.0
2017-Sep-14 00:30N 05°38' E 000°01'0 0.0
2017-Sep-14 00:00N 05°38' E 000°01'0 0.0
2017-Sep-13 23:30N 05°38' E 000°01'0 0.0
2017-Sep-13 23:00N 05°38' E 000°01'0 0.0
2017-Sep-13 22:30N 05°38' E 000°01'0 0.0
2017-Sep-13 22:00N 05°38' E 000°01'0 0.0
2017-Sep-13 21:30N 05°38' E 000°01'0 0.0
2017-Sep-13 21:00N 05°38' E 000°01'0 0.0
2017-Sep-13 20:30N 05°38' E 000°01'0 0.0
2017-Sep-13 20:00N 05°38' E 000°01'0 0.0
2017-Sep-13 19:30N 05°38' E 000°01'0 0.0
2017-Sep-13 19:00N 05°38' E 000°01'0 0.0
2017-Sep-13 18:30N 05°38' E 000°01'0 0.0
2017-Sep-13 18:00N 05°38' E 000°01'0 0.0
2017-Sep-13 17:30N 05°38' E 000°01'0 0.0
2017-Sep-13 17:00N 05°38' E 000°01'0 0.0
2017-Sep-13 16:30N 05°38' E 000°01'0 0.0
2017-Sep-13 16:00N 05°38' E 000°01'0 0.0
2017-Sep-13 15:30N 05°38' E 000°01'0 0.0
2017-Sep-13 15:00N 05°38' E 000°01'0 0.0
2017-Sep-13 14:30N 05°38' E 000°01'0 0.0
2017-Sep-13 14:00N 05°38' E 000°01'0 0.0
2017-Sep-13 13:30N 05°38' E 000°01'0 0.0
2017-Sep-13 13:01N 05°38' E 000°01'0 0.0
2017-Sep-13 12:30N 05°38' E 000°01'0 0.0
2017-Sep-13 12:01N 05°38' E 000°01'0 0.0
2017-Sep-13 11:31N 05°38' E 000°01'0 0.0
2017-Sep-13 11:01N 05°38' E 000°01'0 0.0
2017-Sep-13 10:31N 05°38' E 000°01'0 0.0
2017-Sep-13 10:01N 05°38' E 000°01'0 0.0
2017-Sep-13 09:30N 05°38' E 000°01'0 0.0
2017-Sep-13 09:01N 05°38' E 000°01'0 0.0
2017-Sep-13 08:31N 05°38' E 000°01'0 0.0
2017-Sep-13 08:01N 05°38' E 000°01'0 0.0
2017-Sep-13 07:31N 05°38' E 000°01'0 0.0
2017-Sep-13 07:01N 05°38' E 000°01'0 0.0
2017-Sep-13 06:30N 05°38' E 000°01'0 0.0
2017-Sep-13 06:00N 05°38' E 000°01'0 0.0
2017-Sep-13 05:30N 05°38' E 000°01'0 0.0
2017-Sep-13 05:00N 05°38' E 000°01'0 0.0
2017-Sep-13 04:30N 05°38' E 000°01'0 0.0
2017-Sep-13 04:00N 05°38' E 000°01'0 0.0
2017-Sep-13 03:30N 05°38' E 000°01'0 0.0
2017-Sep-13 03:00N 05°38' E 000°01'0 0.0
2017-Sep-13 02:30N 05°38' E 000°01'0 0.0
2017-Sep-13 02:00N 05°38' E 000°01'0 0.0
2017-Sep-13 01:30N 05°38' E 000°01'0 0.0
2017-Sep-13 01:00N 05°38' E 000°01'0 0.0
2017-Sep-13 00:30N 05°38' E 000°01'0 0.0
2017-Sep-13 00:00N 05°38' E 000°01'0 0.0
2017-Sep-12 23:30N 05°38' E 000°01'0 0.0
2017-Sep-12 23:00N 05°38' E 000°01'0 0.0
2017-Sep-12 22:30N 05°38' E 000°01'0 0.0
2017-Sep-12 22:00N 05°38' E 000°01'0 0.0
2017-Sep-12 21:30N 05°38' E 000°01'0 0.0
2017-Sep-12 21:00N 05°38' E 000°01'0 0.0
2017-Sep-12 20:30N 05°38' E 000°01'0 0.0
2017-Sep-12 20:00N 05°38' E 000°01'0 0.0
2017-Sep-12 19:30N 05°38' E 000°01'0 0.0
2017-Sep-12 19:00N 05°38' E 000°01'0 0.0
2017-Sep-12 18:30N 05°38' E 000°01'0 0.0
2017-Sep-12 18:00N 05°38' E 000°01'0 0.0
2017-Sep-12 17:30N 05°38' E 000°01'0 0.0
2017-Sep-12 17:00N 05°38' E 000°01'0 0.0
2017-Sep-12 16:30N 05°38' E 000°01'0 0.0
2017-Sep-12 16:00N 05°38' E 000°01'0 0.0
2017-Sep-12 15:30N 05°38' E 000°01'0 0.0
2017-Sep-12 15:00N 05°38' E 000°01'0 0.0
2017-Sep-12 14:30N 05°38' E 000°01'0 0.0
2017-Sep-12 14:00N 05°38' E 000°01'0 0.0
2017-Sep-12 13:30N 05°38' E 000°01'0 0.0
2017-Sep-12 13:00N 05°38' E 000°01'0 0.0
2017-Sep-12 12:30N 05°38' E 000°01'0 0.0
2017-Sep-12 12:00N 05°38' E 000°01'0 0.0
2017-Sep-12 11:30N 05°38' E 000°01'0 0.0
2017-Sep-12 11:00N 05°38' E 000°01'0 0.0
2017-Sep-12 10:30N 05°38' E 000°01'0 0.0
2017-Sep-12 10:00N 05°38' E 000°01'0 0.0
2017-Sep-12 09:30N 05°38' E 000°01'0 0.0
2017-Sep-12 09:00N 05°38' E 000°01'0 0.0
2017-Sep-12 08:30N 05°38' E 000°01'0 0.0
2017-Sep-12 08:00N 05°38' E 000°01'0 0.0
2017-Sep-12 07:30N 05°38' E 000°01'0 0.0
2017-Sep-12 07:00N 05°38' E 000°01'0 0.0
2017-Sep-12 06:30N 05°38' E 000°01'0 0.0
2017-Sep-12 06:00N 05°38' E 000°01'0 0.0
2017-Sep-12 05:30N 05°38' E 000°01'0 0.0
2017-Sep-12 05:00N 05°38' E 000°01'0 0.0
2017-Sep-12 04:30N 05°38' E 000°01'0 0.0
2017-Sep-12 04:00N 05°38' E 000°01'0 0.0
2017-Sep-12 03:30N 05°38' E 000°01'0 0.0
2017-Sep-12 03:00N 05°38' E 000°01'0 0.0
2017-Sep-12 02:30N 05°38' E 000°01'0 0.0
2017-Sep-12 02:00N 05°38' E 000°01'0 0.0
2017-Sep-12 01:30N 05°38' E 000°01'0 0.0
2017-Sep-12 01:00N 05°38' E 000°01'0 0.0
2017-Sep-12 00:30N 05°38' E 000°01'0 0.0
2017-Sep-12 00:00N 05°38' E 000°01'0 0.0
2017-Sep-11 23:30N 05°38' E 000°01'0 0.0
2017-Sep-11 23:00N 05°38' E 000°01'0 0.0
2017-Sep-11 22:30N 05°38' E 000°01'0 0.0
2017-Sep-11 22:00N 05°38' E 000°01'0 0.0
2017-Sep-11 21:30N 05°38' E 000°01'0 0.0
2017-Sep-11 21:00N 05°38' E 000°01'0 0.0
2017-Sep-11 20:30N 05°38' E 000°01'0 0.0
2017-Sep-11 20:00N 05°38' E 000°01'0 0.0
2017-Sep-11 19:30N 05°38' E 000°01'0 0.0
2017-Sep-11 19:00N 05°38' E 000°01'0 0.0
2017-Sep-11 18:30N 05°38' E 000°01'0 0.0
2017-Sep-11 18:00N 05°38' E 000°01'0 0.0
2017-Sep-11 17:30N 05°38' E 000°01'0 0.0
2017-Sep-11 17:00N 05°38' E 000°01'0 0.0
2017-Sep-11 16:30N 05°38' E 000°01'0 0.0
2017-Sep-11 16:00N 05°38' E 000°01'0 0.0
2017-Sep-11 15:30N 05°38' E 000°01'0 0.0
2017-Sep-11 15:00N 05°38' E 000°01'0 0.0
2017-Sep-11 14:30N 05°38' E 000°01'0 0.0
2017-Sep-11 14:00N 05°38' E 000°01'0 0.0
2017-Sep-11 13:30N 05°38' E 000°01'0 0.0
2017-Sep-11 13:00N 05°38' E 000°01'0 0.0
2017-Sep-11 12:30N 05°38' E 000°01'0 0.0
2017-Sep-11 12:00N 05°38' E 000°01'0 0.0
2017-Sep-11 11:30N 05°38' E 000°01'0 0.0
2017-Sep-11 11:00N 05°38' E 000°01'0 0.0
2017-Sep-11 10:30N 05°38' E 000°01'0 0.0
2017-Sep-11 10:00N 05°38' E 000°01'0 0.0
2017-Sep-11 09:30N 05°38' E 000°01'0 0.0
2017-Sep-11 09:00N 05°38' E 000°01'0 0.0
2017-Sep-11 08:30N 05°38' E 000°01'0 0.0
2017-Sep-11 08:00N 05°38' E 000°01'0 0.0
2017-Sep-11 07:30N 05°38' E 000°01'0 0.0
2017-Sep-11 07:00N 05°38' E 000°01'0 0.0
2017-Sep-11 06:30N 05°38' E 000°01'0 0.0
2017-Sep-11 06:00N 05°38' E 000°01'0 0.0
2017-Sep-11 05:30N 05°38' E 000°01'0 0.0
2017-Sep-11 05:00N 05°38' E 000°01'0 0.0
2017-Sep-11 04:30N 05°38' E 000°01'0 0.0
2017-Sep-11 04:00N 05°38' E 000°01'0 0.0
2017-Sep-11 03:30N 05°38' E 000°01'0 0.0
2017-Sep-11 03:00N 05°38' E 000°01'0 0.0
2017-Sep-11 02:30N 05°38' E 000°01'0 0.0
2017-Sep-11 02:00N 05°38' E 000°01'0 0.0
2017-Sep-11 01:30N 05°38' E 000°01'0 0.0
2017-Sep-11 01:00N 05°38' E 000°01'0 0.0
2017-Sep-11 00:30N 05°38' E 000°01'0 0.0
2017-Sep-11 00:00N 05°38' E 000°01'0 0.0
2017-Sep-10 23:30N 05°38' E 000°01'0 0.0
2017-Sep-10 23:00N 05°38' E 000°01'0 0.0
2017-Sep-10 22:30N 05°38' E 000°01'0 0.0
2017-Sep-10 22:00N 05°38' E 000°01'0 0.0
2017-Sep-10 21:30N 05°38' E 000°01'0 0.0
2017-Sep-10 21:00N 05°38' E 000°01'0 0.0
2017-Sep-10 20:30N 05°38' E 000°01'0 0.0
2017-Sep-10 20:00N 05°38' E 000°01'0 0.0
2017-Sep-10 19:30N 05°38' E 000°01'0 0.0
2017-Sep-10 19:00N 05°38' E 000°01'0 0.0
2017-Sep-10 18:30N 05°38' E 000°01'0 0.0
2017-Sep-10 18:00N 05°38' E 000°01'0 0.0
2017-Sep-10 17:30N 05°38' E 000°01'0 0.0
2017-Sep-10 17:00N 05°38' E 000°01'0 0.0
2017-Sep-10 16:30N 05°38' E 000°01'0 0.0
2017-Sep-10 16:00N 05°38' E 000°01'0 0.0
2017-Sep-10 15:30N 05°38' E 000°01'0 0.0
2017-Sep-10 15:00N 05°38' E 000°01'0 0.0
2017-Sep-10 14:00N 05°38' E 000°01'0 0.0
2017-Sep-10 13:30N 05°38' E 000°01'0 0.0
2017-Sep-10 13:00N 05°38' E 000°01'0 0.0
2017-Sep-10 12:30N 05°38' E 000°01'0 0.0
2017-Sep-10 12:00N 05°38' E 000°01'0 0.0
2017-Sep-10 11:30N 05°38' E 000°01'0 0.0
2017-Sep-10 11:00N 05°38' E 000°01'0 0.0
2017-Sep-10 10:30N 05°38' E 000°01'0 0.0
2017-Sep-10 10:00N 05°38' E 000°01'0 0.0
2017-Sep-10 09:30N 05°38' E 000°01'0 0.0
2017-Sep-10 09:00N 05°38' E 000°01'0 0.0
2017-Sep-10 08:30N 05°38' E 000°01'0 0.0
2017-Sep-10 08:00N 05°38' E 000°01'0 0.0
2017-Sep-10 07:30N 05°38' E 000°01'0 0.0
2017-Sep-10 07:00N 05°38' E 000°01'0 0.0
2017-Sep-10 06:30N 05°38' E 000°01'0 0.0
2017-Sep-10 06:00N 05°38' E 000°01'0 0.0
2017-Sep-10 05:30N 05°38' E 000°01'0 0.0
2017-Sep-10 05:00N 05°38' E 000°01'0 0.0
2017-Sep-10 04:30N 05°38' E 000°01'0 0.0
2017-Sep-10 04:00N 05°38' E 000°01'0 0.0
2017-Sep-10 03:30N 05°38' E 000°01'0 0.0
2017-Sep-10 03:00N 05°38' E 000°01'0 0.0
2017-Sep-10 02:30N 05°38' E 000°01'0 0.0
2017-Sep-10 02:00N 05°38' E 000°01'0 0.0
2017-Sep-10 01:30N 05°38' E 000°01'0 0.0
2017-Sep-10 01:00N 05°38' E 000°01'0 0.0
2017-Sep-10 00:30N 05°38' E 000°01'0 0.0
2017-Sep-10 00:00N 05°38' E 000°01'0 0.0
2017-Sep-09 23:30N 05°38' E 000°01'0 0.0
2017-Sep-09 23:00N 05°38' E 000°01'0 0.0
2017-Sep-09 22:30N 05°38' E 000°01'0 0.0
2017-Sep-09 22:00N 05°38' E 000°01'0 0.0
2017-Sep-09 21:30N 05°38' E 000°01'0 0.0
2017-Sep-09 21:00N 05°38' E 000°01'0 0.0
2017-Sep-09 20:30N 05°38' E 000°01'0 0.0
2017-Sep-09 20:00N 05°38' E 000°01'0 0.0
2017-Sep-09 19:30N 05°38' E 000°01'0 0.0
2017-Sep-09 19:00N 05°38' E 000°01'0 0.0
2017-Sep-09 18:30N 05°38' E 000°01'0 0.0
2017-Sep-09 18:00N 05°38' E 000°01'0 0.0
2017-Sep-09 17:30N 05°38' E 000°01'0 0.0
2017-Sep-09 17:00N 05°38' E 000°01'0 0.0
2017-Sep-09 16:30N 05°38' E 000°01'0 0.0
2017-Sep-09 16:00N 05°38' E 000°01'0 0.0
2017-Sep-09 15:30N 05°38' E 000°01'0 0.0
2017-Sep-09 15:00N 05°38' E 000°01'0 0.0
2017-Sep-09 14:30N 05°38' E 000°01'0 0.0
2017-Sep-09 14:00N 05°38' E 000°01'0 0.0
2017-Sep-09 13:30N 05°38' E 000°01'0 0.0
2017-Sep-09 13:00N 05°38' E 000°01'0 0.0
2017-Sep-09 12:30N 05°38' E 000°01'0 0.0
2017-Sep-09 12:00N 05°38' E 000°01'0 0.0
2017-Sep-09 11:30N 05°38' E 000°01'0 0.0
2017-Sep-09 11:00N 05°38' E 000°01'0 0.0
2017-Sep-09 10:30N 05°38' E 000°01'0 0.0
2017-Sep-09 10:00N 05°38' E 000°01'0 0.0
2017-Sep-09 09:30N 05°38' E 000°01'0 0.0
2017-Sep-09 09:00N 05°38' E 000°01'0 0.0
2017-Sep-09 08:30N 05°38' E 000°01'0 0.0
2017-Sep-09 08:00N 05°38' E 000°01'0 0.0
2017-Sep-09 07:30N 05°38' E 000°01'0 0.0
2017-Sep-09 07:00N 05°38' E 000°01'0 0.0
2017-Sep-09 06:30N 05°38' E 000°01'0 0.0
2017-Sep-09 06:00N 05°38' E 000°01'0 0.0
2017-Sep-09 05:30N 05°38' E 000°01'0 0.0
2017-Sep-09 05:00N 05°38' E 000°01'0 0.0
2017-Sep-09 04:30N 05°38' E 000°01'0 0.0
2017-Sep-09 04:00N 05°38' E 000°01'0 0.0
2017-Sep-09 03:30N 05°38' E 000°01'0 0.0
2017-Sep-09 03:00N 05°38' E 000°01'0 0.0
2017-Sep-09 02:30N 05°38' E 000°01'0 0.0
2017-Sep-09 02:00N 05°38' E 000°01'0 0.0
2017-Sep-09 01:30N 05°38' E 000°01'0 0.0
2017-Sep-09 01:00N 05°38' E 000°01'0 0.0
2017-Sep-09 00:30N 05°38' E 000°01'0 0.0
2017-Sep-09 00:00N 05°38' E 000°01'0 0.0
2017-Sep-08 23:30N 05°38' E 000°01'0 0.0
2017-Sep-08 23:00N 05°38' E 000°01'0 0.0
2017-Sep-08 22:30N 05°38' E 000°01'0 0.0
2017-Sep-08 22:00N 05°38' E 000°01'0 0.0
2017-Sep-08 21:30N 05°38' E 000°01'0 0.0
2017-Sep-08 21:00N 05°38' E 000°01'0 0.0
2017-Sep-08 20:30N 05°38' E 000°01'0 0.0
2017-Sep-08 20:00N 05°38' E 000°01'0 0.0
2017-Sep-08 19:30N 05°38' E 000°01'0 0.0
2017-Sep-08 19:00N 05°38' E 000°01'0 0.0
2017-Sep-08 18:30N 05°38' E 000°01'0 0.0
2017-Sep-08 18:00N 05°38' E 000°01'0 0.0
2017-Sep-08 17:30N 05°38' E 000°01'0 0.0
2017-Sep-08 17:00N 05°38' E 000°01'0 0.0
2017-Sep-08 16:30N 05°38' E 000°01'0 0.0
2017-Sep-08 16:00N 05°38' E 000°01'0 0.0
2017-Sep-08 15:30N 05°38' E 000°01'0 0.0
2017-Sep-08 15:00N 05°38' E 000°01'0 0.0
2017-Sep-08 14:30N 05°38' E 000°01'0 0.0
2017-Sep-08 14:00N 05°38' E 000°01'0 0.0
2017-Sep-08 13:30N 05°38' E 000°01'0 0.0
2017-Sep-08 12:32N 05°38' E 000°01'0 0.0
2017-Sep-08 12:30N 05°38' E 000°01'0 0.0
2017-Sep-08 12:00N 05°38' E 000°01'0 0.0
2017-Sep-08 11:30N 05°38' E 000°01'0 0.0
2017-Sep-08 11:00N 05°38' E 000°01'0 0.0
2017-Sep-08 10:30N 05°38' E 000°01'0 0.0
2017-Sep-08 10:00N 05°38' E 000°01'  
Track history (hours):
 
Tides and Currents Weather Stations Pressure Air Temp Water Temp Dewpoint Dewpoint Depression Visibility Wind Speed Wind Dir Waves Ship Positions

Ap703

Last reported at 2017-Sep-18 09:59 UTC. Time now 2017-Sep-20 23:45 UTC.
Position N 05°31' E 000°21'.

Length 5 m.

Type: Fishing. MMSI: 627795000.

Date/timePositionNaut miles runAvg speedWind from/ knotsBaromVisibWave heightAir tempDewpointWater temp
2017-Sep-18 09:59N 05°31' E 000°21'5 9.7
2017-Sep-18 09:27N 05°34' E 000°17'5 9.8
2017-Sep-18 09:00N 05°36' E 000°13'510.1
2017-Sep-18 08:30N 05°38' E 000°08'1 2.3
2017-Sep-18 08:00N 05°38' E 000°07'0 0.8
2017-Sep-18 07:30N 05°38' E 000°07'0 0.4
2017-Sep-18 07:00N 05°39' E 000°07'1 2.1
2017-Sep-18 06:30N 05°38' E 000°06'0 0.6
2017-Sep-18 06:00N 05°38' E 000°05'1 1.4
2017-Sep-18 05:30N 05°38' E 000°06'1 2.1
2017-Sep-18 05:00N 05°38' E 000°07'0 0.7
2017-Sep-18 04:30N 05°37' E 000°06'2 3.3
2017-Sep-18 04:00N 05°38' E 000°08'4 8.1
2017-Sep-18 03:30N 05°39' E 000°11'5 8.9
2017-Sep-18 03:00N 05°40' E 000°16'3 6.5
2017-Sep-18 02:30N 05°39' E 000°19'3 6.2
2017-Sep-18 01:59N 05°38' E 000°22'40 1.0
2017-Sep-16 09:43N 05°20' W 000°14'2 9.2
2017-Sep-16 09:30N 05°22' W 000°14'5 9.2
2017-Sep-16 09:00N 05°26' W 000°16'2 3.2
2017-Sep-16 08:30N 05°28' W 000°17'0 0.8
2017-Sep-16 07:54N 05°27' W 000°17'1 2.1
2017-Sep-16 07:29N 05°28' W 000°17'1 0.9
2017-Sep-16 06:51N 05°28' W 000°17'0 0.9
2017-Sep-16 06:30N 05°28' W 000°17'0 0.8
2017-Sep-16 06:00N 05°27' W 000°18'1 1.8
2017-Sep-16 05:30N 05°27' W 000°19'0 0.0
2017-Sep-16 04:52N 05°27' W 000°19'0 0.0
2017-Sep-16 04:25N 05°27' W 000°19'0 0.0
2017-Sep-16 04:00N 05°27' W 000°19'0 0.0
2017-Sep-16 03:28N 05°27' W 000°19'0 0.0
2017-Sep-16 02:59N 05°27' W 000°19'0 0.0
2017-Sep-16 02:25N 05°27' W 000°19'0 0.0
2017-Sep-16 02:00N 05°27' W 000°19'0 0.0
2017-Sep-16 01:27N 05°27' W 000°19'0 0.0
2017-Sep-16 01:00N 05°27' W 000°19'0 0.3
2017-Sep-16 00:30N 05°27' W 000°19'20 1.7
2017-Sep-15 12:41N 05°21' E 000°01'2 9.7
2017-Sep-15 12:30N 05°23' E 000°01'5 9.8
2017-Sep-15 12:00N 05°28' E 000°02'5 9.7
2017-Sep-15 11:30N 05°32' E 000°02'5 9.6
2017-Sep-15 11:00N 05°37' E 000°02'1 2.2
2017-Sep-15 10:30N 05°38' E 000°01'0 0.9
2017-Sep-15 10:00N 05°37' E 000°02'0 0.0
2017-Sep-15 09:30N 05°37' E 000°02'0 0.0
2017-Sep-15 09:00N 05°37' E 000°02'0 0.0
2017-Sep-15 08:30N 05°37' E 000°02'1 1.9
2017-Sep-15 08:00N 05°38' E 000°01'0 0.0
2017-Sep-15 07:30N 05°38' E 000°01'0 0.0
2017-Sep-15 07:00N 05°38' E 000°01'0 0.0
2017-Sep-15 06:30N 05°38' E 000°01'0 0.0
2017-Sep-15 06:00N 05°38' E 000°01'0 0.0
2017-Sep-15 05:30N 05°38' E 000°01'0 0.0
2017-Sep-15 05:00N 05°38' E 000°01'0 0.0
2017-Sep-15 04:30N 05°38' E 000°01'0 0.0
2017-Sep-15 04:00N 05°38' E 000°01'0 0.0
2017-Sep-15 03:30N 05°38' E 000°01'0 0.0
2017-Sep-15 03:00N 05°38' E 000°01'0 0.0
2017-Sep-15 02:30N 05°38' E 000°01'0 0.0
2017-Sep-15 02:00N 05°38' E 000°01'0 0.0
2017-Sep-15 01:30N 05°38' E 000°01'0 0.0
2017-Sep-15 01:00N 05°38' E 000°01'0 0.0
2017-Sep-15 00:30N 05°38' E 000°01'0 0.0
2017-Sep-15 00:00N 05°38' E 000°01'0 0.0
2017-Sep-14 23:30N 05°38' E 000°01'0 0.0
2017-Sep-14 23:00N 05°38' E 000°01'0 0.0
2017-Sep-14 22:30N 05°38' E 000°01'0 0.0
2017-Sep-14 22:00N 05°38' E 000°01'0 0.0
2017-Sep-14 21:30N 05°38' E 000°01'0 0.0
2017-Sep-14 21:00N 05°38' E 000°01'0 0.0
2017-Sep-14 20:30N 05°38' E 000°01'0 0.0
2017-Sep-14 20:00N 05°38' E 000°01'0 0.0
2017-Sep-14 19:30N 05°38' E 000°01'0 0.0
2017-Sep-14 19:00N 05°38' E 000°01'0 0.0
2017-Sep-14 18:30N 05°38' E 000°01'0 0.0
2017-Sep-14 18:00N 05°38' E 000°01'0 0.0
2017-Sep-14 17:30N 05°38' E 000°01'0 0.0
2017-Sep-14 17:00N 05°38' E 000°01'0 0.0
2017-Sep-14 16:30N 05°38' E 000°01'0 0.0
2017-Sep-14 16:00N 05°38' E 000°01'0 0.0
2017-Sep-14 15:30N 05°38' E 000°01'0 0.0
2017-Sep-14 15:00N 05°38' E 000°01'0 0.0
2017-Sep-14 14:30N 05°38' E 000°01'0 0.0
2017-Sep-14 14:00N 05°38' E 000°01'0 0.0
2017-Sep-14 13:30N 05°38' E 000°01'0 0.0
2017-Sep-14 13:00N 05°38' E 000°01'0 0.0
2017-Sep-14 12:30N 05°38' E 000°01'0 0.0
2017-Sep-14 12:00N 05°38' E 000°01'0 0.0
2017-Sep-14 11:30N 05°38' E 000°01'0 0.0
2017-Sep-14 11:00N 05°38' E 000°01'0 0.0
2017-Sep-14 10:30N 05°38' E 000°01'0 0.0
2017-Sep-14 10:00N 05°38' E 000°01'0 0.0
2017-Sep-14 09:30N 05°38' E 000°01'0 0.0
2017-Sep-14 09:00N 05°38' E 000°01'0 0.0
2017-Sep-14 08:30N 05°38' E 000°01'0 0.0
2017-Sep-14 08:00N 05°38' E 000°01'0 0.0
2017-Sep-14 07:30N 05°38' E 000°01'0 0.0
2017-Sep-14 07:00N 05°38' E 000°01'0 0.0
2017-Sep-14 06:30N 05°38' E 000°01'0 0.0
2017-Sep-14 06:00N 05°38' E 000°01'0 0.0
2017-Sep-14 05:30N 05°38' E 000°01'0 0.0
2017-Sep-14 05:00N 05°38' E 000°01'0 0.0
2017-Sep-14 04:30N 05°38' E 000°01'0 0.0
2017-Sep-14 04:00N 05°38' E 000°01'0 0.0
2017-Sep-14 03:30N 05°38' E 000°01'0 0.0
2017-Sep-14 03:00N 05°38' E 000°01'0 0.0
2017-Sep-14 02:30N 05°38' E 000°01'0 0.0
2017-Sep-14 02:00N 05°38' E 000°01'0 0.0
2017-Sep-14 01:30N 05°38' E 000°01'0 0.0
2017-Sep-14 01:00N 05°38' E 000°01'0 0.0
2017-Sep-14 00:30N 05°38' E 000°01'0 0.0
2017-Sep-14 00:00N 05°38' E 000°01'0 0.0
2017-Sep-13 23:30N 05°38' E 000°01'0 0.0
2017-Sep-13 23:00N 05°38' E 000°01'0 0.0
2017-Sep-13 22:30N 05°38' E 000°01'0 0.0
2017-Sep-13 22:00N 05°38' E 000°01'0 0.0
2017-Sep-13 21:30N 05°38' E 000°01'0 0.0
2017-Sep-13 21:00N 05°38' E 000°01'0 0.0
2017-Sep-13 20:30N 05°38' E 000°01'0 0.0
2017-Sep-13 20:00N 05°38' E 000°01'0 0.0
2017-Sep-13 19:30N 05°38' E 000°01'0 0.0
2017-Sep-13 19:00N 05°38' E 000°01'0 0.0
2017-Sep-13 18:30N 05°38' E 000°01'0 0.0
2017-Sep-13 18:00N 05°38' E 000°01'0 0.0
2017-Sep-13 17:30N 05°38' E 000°01'0 0.0
2017-Sep-13 17:00N 05°38' E 000°01'0 0.0
2017-Sep-13 16:30N 05°38' E 000°01'0 0.0
2017-Sep-13 16:00N 05°38' E 000°01'0 0.0
2017-Sep-13 15:30N 05°38' E 000°01'0 0.0
2017-Sep-13 15:00N 05°38' E 000°01'0 0.0
2017-Sep-13 14:30N 05°38' E 000°01'0 0.0
2017-Sep-13 14:00N 05°38' E 000°01'0 0.0
2017-Sep-13 13:30N 05°38' E 000°01'0 0.0
2017-Sep-13 13:01N 05°38' E 000°01'0 0.0
2017-Sep-13 12:30N 05°38' E 000°01'0 0.0
2017-Sep-13 12:01N 05°38' E 000°01'0 0.0
2017-Sep-13 11:31N 05°38' E 000°01'0 0.0
2017-Sep-13 11:01N 05°38' E 000°01'0 0.0
2017-Sep-13 10:31N 05°38' E 000°01'0 0.0
2017-Sep-13 10:01N 05°38' E 000°01'0 0.0
2017-Sep-13 09:30N 05°38' E 000°01'0 0.0
2017-Sep-13 09:01N 05°38' E 000°01'0 0.0
2017-Sep-13 08:31N 05°38' E 000°01'0 0.0
2017-Sep-13 08:01N 05°38' E 000°01'0 0.0
2017-Sep-13 07:31N 05°38' E 000°01'0 0.0
2017-Sep-13 07:01N 05°38' E 000°01'0 0.0
2017-Sep-13 06:30N 05°38' E 000°01'0 0.0
2017-Sep-13 06:00N 05°38' E 000°01'0 0.0
2017-Sep-13 05:30N 05°38' E 000°01'0 0.0
2017-Sep-13 05:00N 05°38' E 000°01'0 0.0
2017-Sep-13 04:30N 05°38' E 000°01'0 0.0
2017-Sep-13 04:00N 05°38' E 000°01'0 0.0
2017-Sep-13 03:30N 05°38' E 000°01'0 0.0
2017-Sep-13 03:00N 05°38' E 000°01'0 0.0
2017-Sep-13 02:30N 05°38' E 000°01'0 0.0
2017-Sep-13 02:00N 05°38' E 000°01'0 0.0
2017-Sep-13 01:30N 05°38' E 000°01'0 0.0
2017-Sep-13 01:00N 05°38' E 000°01'0 0.0
2017-Sep-13 00:30N 05°38' E 000°01'0 0.0
2017-Sep-13 00:00N 05°38' E 000°01'0 0.0
2017-Sep-12 23:30N 05°38' E 000°01'0 0.0
2017-Sep-12 23:00N 05°38' E 000°01'0 0.0
2017-Sep-12 22:30N 05°38' E 000°01'0 0.0
2017-Sep-12 22:00N 05°38' E 000°01'0 0.0
2017-Sep-12 21:30N 05°38' E 000°01'0 0.0
2017-Sep-12 21:00N 05°38' E 000°01'0 0.0
2017-Sep-12 20:30N 05°38' E 000°01'0 0.0
2017-Sep-12 20:00N 05°38' E 000°01'0 0.0
2017-Sep-12 19:30N 05°38' E 000°01'0 0.0
2017-Sep-12 19:00N 05°38' E 000°01'0 0.0
2017-Sep-12 18:30N 05°38' E 000°01'0 0.0
2017-Sep-12 18:00N 05°38' E 000°01'0 0.0
2017-Sep-12 17:30N 05°38' E 000°01'0 0.0
2017-Sep-12 17:00N 05°38' E 000°01'0 0.0
2017-Sep-12 16:30N 05°38' E 000°01'0 0.0
2017-Sep-12 16:00N 05°38' E 000°01'0 0.0
2017-Sep-12 15:30N 05°38' E 000°01'0 0.0
2017-Sep-12 15:00N 05°38' E 000°01'0 0.0
2017-Sep-12 14:30N 05°38' E 000°01'0 0.0
2017-Sep-12 14:00N 05°38' E 000°01'0 0.0
2017-Sep-12 13:30N 05°38' E 000°01'0 0.0
2017-Sep-12 13:00N 05°38' E 000°01'0 0.0
2017-Sep-12 12:30N 05°38' E 000°01'0 0.0
2017-Sep-12 12:00N 05°38' E 000°01'0 0.0
2017-Sep-12 11:30N 05°38' E 000°01'0 0.0
2017-Sep-12 11:00N 05°38' E 000°01'0 0.0
2017-Sep-12 10:30N 05°38' E 000°01'0 0.0
2017-Sep-12 10:00N 05°38' E 000°01'0 0.0
2017-Sep-12 09:30N 05°38' E 000°01'0 0.0
2017-Sep-12 09:00N 05°38' E 000°01'0 0.0
2017-Sep-12 08:30N 05°38' E 000°01'0 0.0
2017-Sep-12 08:00N 05°38' E 000°01'0 0.0
2017-Sep-12 07:30N 05°38' E 000°01'0 0.0
2017-Sep-12 07:00N 05°38' E 000°01'0 0.0
2017-Sep-12 06:30N 05°38' E 000°01'0 0.0
2017-Sep-12 06:00N 05°38' E 000°01'0 0.0
2017-Sep-12 05:30N 05°38' E 000°01'0 0.0
2017-Sep-12 05:00N 05°38' E 000°01'0 0.0
2017-Sep-12 04:30N 05°38' E 000°01'0 0.0
2017-Sep-12 04:00N 05°38' E 000°01'0 0.0
2017-Sep-12 03:30N 05°38' E 000°01'0 0.0
2017-Sep-12 03:00N 05°38' E 000°01'0 0.0
2017-Sep-12 02:30N 05°38' E 000°01'0 0.0
2017-Sep-12 02:00N 05°38' E 000°01'0 0.0
2017-Sep-12 01:30N 05°38' E 000°01'0 0.0
2017-Sep-12 01:00N 05°38' E 000°01'0 0.0
2017-Sep-12 00:30N 05°38' E 000°01'0 0.0
2017-Sep-12 00:00N 05°38' E 000°01'0 0.0
2017-Sep-11 23:30N 05°38' E 000°01'0 0.0
2017-Sep-11 23:00N 05°38' E 000°01'0 0.0
2017-Sep-11 22:30N 05°38' E 000°01'0 0.0
2017-Sep-11 22:00N 05°38' E 000°01'0 0.0
2017-Sep-11 21:30N 05°38' E 000°01'0 0.0
2017-Sep-11 21:00N 05°38' E 000°01'0 0.0
2017-Sep-11 20:30N 05°38' E 000°01'0 0.0
2017-Sep-11 20:00N 05°38' E 000°01'0 0.0
2017-Sep-11 19:30N 05°38' E 000°01'0 0.0
2017-Sep-11 19:00N 05°38' E 000°01'0 0.0
2017-Sep-11 18:30N 05°38' E 000°01'0 0.0
2017-Sep-11 18:00N 05°38' E 000°01'0 0.0
2017-Sep-11 17:30N 05°38' E 000°01'0 0.0
2017-Sep-11 17:00N 05°38' E 000°01'0 0.0
2017-Sep-11 16:30N 05°38' E 000°01'0 0.0
2017-Sep-11 16:00N 05°38' E 000°01'0 0.0
2017-Sep-11 15:30N 05°38' E 000°01'0 0.0
2017-Sep-11 15:00N 05°38' E 000°01'0 0.0
2017-Sep-11 14:30N 05°38' E 000°01'0 0.0
2017-Sep-11 14:00N 05°38' E 000°01'0 0.0
2017-Sep-11 13:30N 05°38' E 000°01'0 0.0
2017-Sep-11 13:00N 05°38' E 000°01'0 0.0
2017-Sep-11 12:30N 05°38' E 000°01'0 0.0
2017-Sep-11 12:00N 05°38' E 000°01'0 0.0
2017-Sep-11 11:30N 05°38' E 000°01'0 0.0
2017-Sep-11 11:00N 05°38' E 000°01'0 0.0
2017-Sep-11 10:30N 05°38' E 000°01'0 0.0
2017-Sep-11 10:00N 05°38' E 000°01'0 0.0
2017-Sep-11 09:30N 05°38' E 000°01'0 0.0
2017-Sep-11 09:00N 05°38' E 000°01'0 0.0
2017-Sep-11 08:30N 05°38' E 000°01'0 0.0
2017-Sep-11 08:00N 05°38' E 000°01'0 0.0
2017-Sep-11 07:30N 05°38' E 000°01'0 0.0
2017-Sep-11 07:00N 05°38' E 000°01'0 0.0
2017-Sep-11 06:30N 05°38' E 000°01'0 0.0
2017-Sep-11 06:00N 05°38' E 000°01'0 0.0
2017-Sep-11 05:30N 05°38' E 000°01'0 0.0
2017-Sep-11 05:00N 05°38' E 000°01'0 0.0
2017-Sep-11 04:30N 05°38' E 000°01'0 0.0
2017-Sep-11 04:00N 05°38' E 000°01'0 0.0
2017-Sep-11 03:30N 05°38' E 000°01'0 0.0
2017-Sep-11 03:00N 05°38' E 000°01'0 0.0
2017-Sep-11 02:30N 05°38' E 000°01'0 0.0
2017-Sep-11 02:00N 05°38' E 000°01'0 0.0
2017-Sep-11 01:30N 05°38' E 000°01'0 0.0
2017-Sep-11 01:00N 05°38' E 000°01'0 0.0
2017-Sep-11 00:30N 05°38' E 000°01'0 0.0
2017-Sep-11 00:00N 05°38' E 000°01'0 0.0
2017-Sep-10 23:30N 05°38' E 000°01'0 0.0
2017-Sep-10 23:00N 05°38' E 000°01'0 0.0
2017-Sep-10 22:30N 05°38' E 000°01'0 0.0
2017-Sep-10 22:00N 05°38' E 000°01'0 0.0
2017-Sep-10 21:30N 05°38' E 000°01'0 0.0
2017-Sep-10 21:00N 05°38' E 000°01'0 0.0
2017-Sep-10 20:30N 05°38' E 000°01'0 0.0
2017-Sep-10 20:00N 05°38' E 000°01'0 0.0
2017-Sep-10 19:30N 05°38' E 000°01'0 0.0
2017-Sep-10 19:00N 05°38' E 000°01'0 0.0
2017-Sep-10 18:30N 05°38' E 000°01'0 0.0
2017-Sep-10 18:00N 05°38' E 000°01'0 0.0
2017-Sep-10 17:30N 05°38' E 000°01'0 0.0
2017-Sep-10 17:00N 05°38' E 000°01'0 0.0
2017-Sep-10 16:30N 05°38' E 000°01'0 0.0
2017-Sep-10 16:00N 05°38' E 000°01'0 0.0
2017-Sep-10 15:30N 05°38' E 000°01'0 0.0
2017-Sep-10 15:00N 05°38' E 000°01'0 0.0
2017-Sep-10 14:00N 05°38' E 000°01'0 0.0
2017-Sep-10 13:30N 05°38' E 000°01'0 0.0
2017-Sep-10 13:00N 05°38' E 000°01'0 0.0
2017-Sep-10 12:30N 05°38' E 000°01'0 0.0
2017-Sep-10 12:00N 05°38' E 000°01'0 0.0
2017-Sep-10 11:30N 05°38' E 000°01'0 0.0
2017-Sep-10 11:00N 05°38' E 000°01'0 0.0
2017-Sep-10 10:30N 05°38' E 000°01'0 0.0
2017-Sep-10 10:00N 05°38' E 000°01'0 0.0
2017-Sep-10 09:30N 05°38' E 000°01'0 0.0
2017-Sep-10 09:00N 05°38' E 000°01'0 0.0
2017-Sep-10 08:30N 05°38' E 000°01'0 0.0
2017-Sep-10 08:00N 05°38' E 000°01'0 0.0
2017-Sep-10 07:30N 05°38' E 000°01'0 0.0
2017-Sep-10 07:00N 05°38' E 000°01'0 0.0
2017-Sep-10 06:30N 05°38' E 000°01'0 0.0
2017-Sep-10 06:00N 05°38' E 000°01'0 0.0
2017-Sep-10 05:30N 05°38' E 000°01'0 0.0
2017-Sep-10 05:00N 05°38' E 000°01'0 0.0
2017-Sep-10 04:30N 05°38' E 000°01'0 0.0
2017-Sep-10 04:00N 05°38' E 000°01'0 0.0
2017-Sep-10 03:30N 05°38' E 000°01'0 0.0
2017-Sep-10 03:00N 05°38' E 000°01'0 0.0
2017-Sep-10 02:30N 05°38' E 000°01'0 0.0
2017-Sep-10 02:00N 05°38' E 000°01'0 0.0
2017-Sep-10 01:30N 05°38' E 000°01'0 0.0
2017-Sep-10 01:00N 05°38' E 000°01'0 0.0
2017-Sep-10 00:30N 05°38' E 000°01'0 0.0
2017-Sep-10 00:00N 05°38' E 000°01'0 0.0
2017-Sep-09 23:30N 05°38' E 000°01'0 0.0
2017-Sep-09 23:00N 05°38' E 000°01'0 0.0
2017-Sep-09 22:30N 05°38' E 000°01'0 0.0
2017-Sep-09 22:00N 05°38' E 000°01'0 0.0
2017-Sep-09 21:30N 05°38' E 000°01'0 0.0
2017-Sep-09 21:00N 05°38' E 000°01'0 0.0
2017-Sep-09 20:30N 05°38' E 000°01'0 0.0
2017-Sep-09 20:00N 05°38' E 000°01'0 0.0
2017-Sep-09 19:30N 05°38' E 000°01'0 0.0
2017-Sep-09 19:00N 05°38' E 000°01'0 0.0
2017-Sep-09 18:30N 05°38' E 000°01'0 0.0
2017-Sep-09 18:00N 05°38' E 000°01'0 0.0
2017-Sep-09 17:30N 05°38' E 000°01'0 0.0
2017-Sep-09 17:00N 05°38' E 000°01'0 0.0
2017-Sep-09 16:30N 05°38' E 000°01'0 0.0
2017-Sep-09 16:00N 05°38' E 000°01'0 0.0
2017-Sep-09 15:30N 05°38' E 000°01'0 0.0
2017-Sep-09 15:00N 05°38' E 000°01'0 0.0
2017-Sep-09 14:30N 05°38' E 000°01'0 0.0
2017-Sep-09 14:00N 05°38' E 000°01'0 0.0
2017-Sep-09 13:30N 05°38' E 000°01'0 0.0
2017-Sep-09 13:00N 05°38' E 000°01'0 0.0
2017-Sep-09 12:30N 05°38' E 000°01'0 0.0
2017-Sep-09 12:00N 05°38' E 000°01'0 0.0
2017-Sep-09 11:30N 05°38' E 000°01'0 0.0
2017-Sep-09 11:00N 05°38' E 000°01'0 0.0
2017-Sep-09 10:30N 05°38' E 000°01'0 0.0
2017-Sep-09 10:00N 05°38' E 000°01'0 0.0
2017-Sep-09 09:30N 05°38' E 000°01'0 0.0
2017-Sep-09 09:00N 05°38' E 000°01'0 0.0
2017-Sep-09 08:30N 05°38' E 000°01'0 0.0
2017-Sep-09 08:00N 05°38' E 000°01'0 0.0
2017-Sep-09 07:30N 05°38' E 000°01'0 0.0
2017-Sep-09 07:00N 05°38' E 000°01'0 0.0
2017-Sep-09 06:30N 05°38' E 000°01'0 0.0
2017-Sep-09 06:00N 05°38' E 000°01'0 0.0
2017-Sep-09 05:30N 05°38' E 000°01'0 0.0
2017-Sep-09 05:00N 05°38' E 000°01'0 0.0
2017-Sep-09 04:30N 05°38' E 000°01'0 0.0
2017-Sep-09 04:00N 05°38' E 000°01'0 0.0
2017-Sep-09 03:30N 05°38' E 000°01'0 0.0
2017-Sep-09 03:00N 05°38' E 000°01'0 0.0
2017-Sep-09 02:30N 05°38' E 000°01'0 0.0
2017-Sep-09 02:00N 05°38' E 000°01'0 0.0
2017-Sep-09 01:30N 05°38' E 000°01'0 0.0
2017-Sep-09 01:00N 05°38' E 000°01'0 0.0
2017-Sep-09 00:30N 05°38' E 000°01'0 0.0
2017-Sep-09 00:00N 05°38' E 000°01'0 0.0
2017-Sep-08 23:30N 05°38' E 000°01'0 0.0
2017-Sep-08 23:00N 05°38' E 000°01'0 0.0
2017-Sep-08 22:30N 05°38' E 000°01'0 0.0
2017-Sep-08 22:00N 05°38' E 000°01'0 0.0
2017-Sep-08 21:30N 05°38' E 000°01'0 0.0
2017-Sep-08 21:00N 05°38' E 000°01'0 0.0
2017-Sep-08 20:30N 05°38' E 000°01'0 0.0
2017-Sep-08 20:00N 05°38' E 000°01'0 0.0
2017-Sep-08 19:30N 05°38' E 000°01'0 0.0
2017-Sep-08 19:00N 05°38' E 000°01'0 0.0
2017-Sep-08 18:30N 05°38' E 000°01'0 0.0
2017-Sep-08 18:00N 05°38' E 000°01'0 0.0
2017-Sep-08 17:30N 05°38' E 000°01'0 0.0
2017-Sep-08 17:00N 05°38' E 000°01'0 0.0
2017-Sep-08 16:30N 05°38' E 000°01'0 0.0
2017-Sep-08 16:00N 05°38' E 000°01'0 0.0
2017-Sep-08 15:30N 05°38' E 000°01'0 0.0
2017-Sep-08 15:00N 05°38' E 000°01'0 0.0
2017-Sep-08 14:30N 05°38' E 000°01'0 0.0
2017-Sep-08 14:00N 05°38' E 000°01'0 0.0
2017-Sep-08 13:30N 05°38' E 000°01'0 0.0
2017-Sep-08 12:32N 05°38' E 000°01'0 0.0
2017-Sep-08 12:30N 05°38' E 000°01'0 0.0
2017-Sep-08 12:00N 05°38' E 000°01'0 0.0
2017-Sep-08 11:30N 05°38' E 000°01'0 0.0
2017-Sep-08 11:00N 05°38' E 000°01'0 0.0
2017-Sep-08 10:30N 05°38' E 000°01'0 0.0
2017-Sep-08 10:00N 05°38' E 000°01'  

Dump ship's entire track history